Private Wetterstation Wechselburg
Wetterdaten: Sonntag, 10.07.2011
Datum Zeit Temp. +2m Bodentemp. Temp.+5cm Temp. Wind Windchill X Diff Temp. Feuchte +2m Feuchte +5cm Sonnenschein Luftdruck Regen Wind Richtung Richtung Sonnenschein UV Taupunkt Windchill Windben
10.07.2011 00:00 20,5 C 22,3 C 18,7 C 19,7 C 18,1 C 0,0 C 72 % 80 % 0 % 1014,0 hPa 0,0 l/m 0,3 km/h (0 Bft) O-NO 67 0 min 0,2 UV-I 15,3 C 18,1 C 0,0 km/h (0 Bft)
10.07.2011 00:10 20,7 C 22,2 C 18,5 C 19,7 C 17,7 C 0,0 C 74 % 82 % 0 % 1014,2 hPa 0,0 l/m 0,2 km/h (0 Bft) N 0 0 min 0,1 UV-I 15,9 C 17,7 C 1,6 km/h (1 Bft)
10.07.2011 00:15 20,5 C 22,2 C 18,3 C 19,5 C 17,5 C 0,0 C 74 % 83 % 0 % 1014,2 hPa 0,0 l/m 0,6 km/h (0 Bft) W 270 0 min 0,0 UV-I 15,7 C 17,5 C 0,0 km/h (0 Bft)
10.07.2011 00:20 20,3 C 22,2 C 18,3 C 19,3 C 17,4 C 0,0 C 74 % 82 % 0 % 1014,2 hPa 0,0 l/m 0,5 km/h (0 Bft) W 270 0 min 0,0 UV-I 15,5 C 17,4 C 0,0 km/h (0 Bft)
10.07.2011 00:25 20,0 C 22,2 C 18,1 C 19,2 C 17,5 C 0,0 C 75 % 83 % 0 % 1014,2 hPa 0,0 l/m 0,0 km/h (0 Bft) W 270 0 min 0,0 UV-I 15,4 C 17,5 C 0,0 km/h (0 Bft)
10.07.2011 00:30 20,0 C 22,2 C 18,1 C 19,2 C 17,7 C 0,0 C 75 % 83 % 0 % 1014,4 hPa 0,0 l/m 0,0 km/h (0 Bft) W 270 0 min 0,5 UV-I 15,4 C 17,7 C 0,0 km/h (0 Bft)
10.07.2011 00:35 20,3 C 22,2 C 18,3 C 19,5 C 17,9 C 0,0 C 75 % 84 % 0 % 1014,4 hPa 0,0 l/m 0,0 km/h (0 Bft) W 270 0 min 1,1 UV-I 15,7 C 17,9 C 0,0 km/h (0 Bft)
10.07.2011 00:40 20,3 C 22,2 C 18,3 C 19,5 C 17,9 C 0,0 C 75 % 83 % 0 % 1014,4 hPa 0,0 l/m 0,0 km/h (0 Bft) W 270 0 min 1,3 UV-I 15,7 C 17,9 C 0,0 km/h (0 Bft)
10.07.2011 00:45 20,2 C 22,2 C 18,3 C 19,5 C 18,1 C 0,0 C 75 % 83 % 0 % 1014,4 hPa 0,0 l/m 0,0 km/h (0 Bft) W 270 0 min 1,6 UV-I 15,6 C 18,1 C 0,0 km/h (0 Bft)
10.07.2011 00:50 20,1 C 22,1 C 18,3 C 19,4 C 18,1 C 0,0 C 75 % 83 % 0 % 1014,3 hPa 0,0 l/m 0,0 km/h (0 Bft) O-NO 67 0 min 1,8 UV-I 15,5 C 18,1 C 1,6 km/h (1 Bft)
10.07.2011 00:55 20,0 C 22,1 C 18,3 C 19,4 C 18,3 C 0,0 C 76 % 84 % 0 % 1014,3 hPa 0,0 l/m 0,0 km/h (0 Bft) N-NO 22 0 min 2,0 UV-I 15,6 C 18,3 C 0,0 km/h (0 Bft)
10.07.2011 01:00 20,1 C 22,1 C 18,3 C 19,5 C 18,3 C 0,0 C 77 % 84 % 0 % 1014,3 hPa 0,0 l/m 0,6 km/h (0 Bft) SW 225 0 min 1,8 UV-I 15,9 C 18,3 C 2,1 km/h (1 Bft)
10.07.2011 01:10 19,9 C 22,1 C 18,1 C 19,2 C 17,8 C 0,0 C 76 % 84 % 0 % 1014,2 hPa 0,0 l/m 0,0 km/h (0 Bft) N 0 0 min 0,6 UV-I 15,5 C 17,8 C 0,0 km/h (0 Bft)
10.07.2011 01:15 19,7 C 22,1 C 18,0 C 19,1 C 17,8 C 0,0 C 76 % 84 % 0 % 1014,2 hPa 0,0 l/m 0,2 km/h (0 Bft) O-NO 67 0 min 0,5 UV-I 15,3 C 17,8 C 1,8 km/h (1 Bft)
10.07.2011 01:20 19,6 C 22,1 C 18,0 C 19,0 C 17,9 C 0,0 C 76 % 84 % 0 % 1014,2 hPa 0,0 l/m 0,2 km/h (0 Bft) O-NO 67 0 min 0,6 UV-I 15,2 C 17,9 C 0,0 km/h (0 Bft)
10.07.2011 01:25 19,7 C 22,1 C 18,1 C 19,1 C 17,9 C 0,0 C 78 % 85 % 0 % 1014,2 hPa 0,0 l/m 0,2 km/h (0 Bft) O-NO 67 0 min 0,7 UV-I 15,8 C 17,9 C 0,0 km/h (0 Bft)
10.07.2011 01:30 19,9 C 22,0 C 18,1 C 19,3 C 18,0 C 0,0 C 78 % 85 % 0 % 1014,2 hPa 0,0 l/m 0,0 km/h (0 Bft) W-SW 247 0 min 0,7 UV-I 15,9 C 18,0 C 0,0 km/h (0 Bft)
10.07.2011 01:35 19,9 C 22,0 C 18,1 C 19,3 C 18,0 C 0,0 C 77 % 85 % 0 % 1014,2 hPa 0,0 l/m 0,3 km/h (0 Bft) W-SW 247 0 min 0,5 UV-I 15,7 C 18,0 C 0,0 km/h (0 Bft)
10.07.2011 01:40 19,9 C 22,0 C 18,1 C 19,2 C 17,9 C 0,0 C 77 % 85 % 0 % 1014,2 hPa 0,0 l/m 0,3 km/h (0 Bft) W 270 0 min 0,4 UV-I 15,7 C 17,9 C 0,0 km/h (0 Bft)
10.07.2011 01:45 19,9 C 22,0 C 18,0 C 19,2 C 17,9 C 0,0 C 78 % 86 % 0 % 1014,2 hPa 0,0 l/m 0,2 km/h (0 Bft) W 270 0 min 0,3 UV-I 15,9 C 17,9 C 0,0 km/h (0 Bft)
10.07.2011 01:50 19,9 C 22,0 C 18,1 C 19,2 C 17,9 C 0,0 C 78 % 86 % 0 % 1014,3 hPa 0,0 l/m 0,3 km/h (0 Bft) W-SW 247 0 min 0,4 UV-I 15,9 C 17,9 C 1,9 km/h (1 Bft)
10.07.2011 01:55 19,9 C 22,0 C 18,0 C 19,2 C 17,9 C 0,0 C 77 % 86 % 0 % 1014,3 hPa 0,0 l/m 0,3 km/h (0 Bft) SW 225 0 min 0,4 UV-I 15,7 C 17,9 C 0,0 km/h (0 Bft)
10.07.2011 02:00 19,9 C 21,9 C 18,0 C 19,2 C 17,9 C 0,0 C 77 % 85 % 0 % 1014,3 hPa 0,0 l/m 0,3 km/h (0 Bft) SW 225 0 min 0,4 UV-I 15,7 C 17,9 C 0,0 km/h (0 Bft)
10.07.2011 02:09 20,0 C 22,0 C 18,1 C 19,4 C 18,1 C 0,0 C 77 % 85 % 0 % 1014,4 hPa 0,0 l/m 1,6 km/h (1 Bft) N 0 0 min 0,5 UV-I 15,8 C 18,1 C 4,2 km/h (1 Bft)
10.07.2011 02:15 19,9 C 22,1 C 18,1 C 19,2 C 17,9 C 0,0 C 78 % 86 % 0 % 1014,4 hPa 0,0 l/m 1,9 km/h (1 Bft) W 270 0 min 0,1 UV-I 15,9 C 17,9 C 5,1 km/h (1 Bft)
10.07.2011 02:20 19,8 C 22,1 C 18,0 C 19,0 C 17,5 C 0,0 C 79 % 86 % 0 % 1014,4 hPa 0,0 l/m 1,6 km/h (1 Bft) W-SW 247 0 min 0,0 UV-I 16,0 C 17,5 C 5,1 km/h (1 Bft)
10.07.2011 02:25 19,6 C 22,2 C 18,0 C 18,8 C 17,1 C 0,0 C 79 % 87 % 0 % 1014,4 hPa 0,0 l/m 2,3 km/h (1 Bft) W-SW 247 0 min 0,0 UV-I 15,9 C 17,1 C 5,6 km/h (1 Bft)
10.07.2011 02:30 19,7 C 22,3 C 17,9 C 18,8 C 16,9 C 0,0 C 79 % 87 % 0 % 1015,1 hPa 0,0 l/m 3,1 km/h (1 Bft) W-SW 247 0 min 0,0 UV-I 16,0 C 16,9 C 5,0 km/h (1 Bft)
10.07.2011 02:35 19,5 C 22,4 C 17,7 C 18,6 C 16,8 C 0,0 C 79 % 88 % 0 % 1015,1 hPa 0,0 l/m 3,1 km/h (1 Bft) W-SW 247 0 min 0,0 UV-I 15,8 C 16,8 C 9,3 km/h (2 Bft)
10.07.2011 02:40 19,1 C 22,4 C 17,5 C 18,3 C 16,6 C 0,0 C 79 % 89 % 0 % 1015,1 hPa 0,7 l/m 2,7 km/h (1 Bft) W 270 0 min 0,0 UV-I 15,4 C 16,6 C 3,5 km/h (1 Bft)
10.07.2011 02:45 18,8 C 22,4 C 17,1 C 18,0 C 16,5 C 0,0 C 82 % 91 % 0 % 1015,1 hPa 0,7 l/m 2,4 km/h (1 Bft) O-NO 67 0 min 0,0 UV-I 15,7 C 16,5 C 10,8 km/h (2 Bft)
10.07.2011 02:50 18,5 C 22,4 C 16,9 C 17,8 C 16,4 C 0,0 C 82 % 92 % 0 % 1015,0 hPa 0,7 l/m 1,6 km/h (1 Bft) S-SW 202 0 min 0,0 UV-I 15,4 C 16,4 C 0,0 km/h (0 Bft)
10.07.2011 02:55 18,5 C 22,3 C 16,8 C 17,8 C 16,3 C 0,0 C 83 % 92 % 0 % 1015,0 hPa 0,0 l/m 0,5 km/h (0 Bft) W-NW 292 0 min 0,0 UV-I 15,6 C 16,3 C 0,0 km/h (0 Bft)
10.07.2011 03:00 18,3 C 22,3 C 16,7 C 17,6 C 16,3 C 0,0 C 84 % 92 % 0 % 1015,0 hPa 0,0 l/m 0,3 km/h (0 Bft) O-NO 67 0 min 0,0 UV-I 15,5 C 16,3 C 0,0 km/h (0 Bft)
10.07.2011 03:09 18,1 C 22,3 C 16,6 C 17,5 C 16,3 C 0,0 C 85 % 93 % 0 % 1014,7 hPa 0,0 l/m 0,0 km/h (0 Bft) N 0 0 min 0,2 UV-I 15,5 C 16,3 C 0,0 km/h (0 Bft)
10.07.2011 03:15 17,9 C 22,3 C 16,5 C 17,3 C 16,1 C 0,0 C 85 % 93 % 0 % 1014,7 hPa 0,0 l/m 0,0 km/h (0 Bft) NO 45 0 min 0,1 UV-I 15,3 C 16,1 C 0,0 km/h (0 Bft)
10.07.2011 03:20 17,8 C 22,3 C 16,4 C 17,2 C 16,1 C 0,0 C 85 % 93 % 0 % 1014,7 hPa 0,0 l/m 0,0 km/h (0 Bft) O-NO 67 0 min 0,1 UV-I 15,2 C 16,1 C 0,0 km/h (0 Bft)
10.07.2011 03:25 17,7 C 22,2 C 16,4 C 17,2 C 16,1 C 0,0 C 86 % 93 % 0 % 1014,7 hPa 0,0 l/m 0,0 km/h (0 Bft) O-NO 67 0 min 0,1 UV-I 15,3 C 16,1 C 0,0 km/h (0 Bft)
10.07.2011 03:30 17,8 C 22,2 C 16,5 C 17,2 C 16,0 C 0,0 C 87 % 94 % 0 % 1014,3 hPa 0,0 l/m 0,0 km/h (0 Bft) N-NO 22 0 min 0,0 UV-I 15,6 C 16,0 C 0,0 km/h (0 Bft)
10.07.2011 03:35 18,0 C 22,2 C 16,5 C 17,3 C 15,9 C 0,0 C 87 % 94 % 0 % 1014,3 hPa 0,0 l/m 0,0 km/h (0 Bft) W-SW 247 0 min 0,0 UV-I 15,8 C 15,9 C 0,0 km/h (0 Bft)
10.07.2011 03:40 18,0 C 22,2 C 16,5 C 17,3 C 15,9 C 0,0 C 87 % 94 % 0 % 1014,3 hPa 0,0 l/m 0,0 km/h (0 Bft) W-SW 247 0 min 0,0 UV-I 15,8 C 15,9 C 0,0 km/h (0 Bft)
10.07.2011 03:45 18,1 C 22,2 C 16,4 C 17,4 C 15,9 C 0,0 C 87 % 94 % 0 % 1014,3 hPa 0,0 l/m 0,0 km/h (0 Bft) W-SW 247 0 min 0,0 UV-I 15,9 C 15,9 C 0,0 km/h (0 Bft)
10.07.2011 03:50 18,0 C 22,2 C 16,5 C 17,3 C 15,8 C 0,0 C 87 % 94 % 0 % 1014,6 hPa 0,0 l/m 0,0 km/h (0 Bft) O-SO 112 0 min 0,0 UV-I 15,8 C 15,8 C 0,0 km/h (0 Bft)
10.07.2011 03:55 17,9 C 22,2 C 16,3 C 17,2 C 15,8 C 0,0 C 86 % 94 % 0 % 1014,6 hPa 0,0 l/m 0,0 km/h (0 Bft) O 90 0 min 0,1 UV-I 15,5 C 15,8 C 0,0 km/h (0 Bft)
10.07.2011 04:00 17,9 C 22,2 C 16,3 C 17,2 C 15,7 C 0,0 C 86 % 94 % 0 % 1014,6 hPa 0,0 l/m 0,0 km/h (0 Bft) SO 135 0 min 0,1 UV-I 15,5 C 15,7 C 0,0 km/h (0 Bft)
10.07.2011 04:09 17,8 C 22,1 C 16,3 C 17,1 C 15,7 C 0,0 C 87 % 94 % 0 % 1014,4 hPa 0,0 l/m 0,2 km/h (0 Bft) N 0 0 min 0,1 UV-I 15,6 C 15,7 C 0,0 km/h (0 Bft)
10.07.2011 04:15 17,7 C 22,1 C 16,1 C 17,0 C 15,6 C 0,0 C 86 % 94 % 0 % 1014,4 hPa 0,0 l/m 0,2 km/h (0 Bft) SO 135 0 min 0,2 UV-I 15,3 C 15,6 C 0,0 km/h (0 Bft)
10.07.2011 04:20 17,7 C 22,1 C 16,1 C 17,0 C 15,6 C 0,0 C 87 % 94 % 0 % 1014,4 hPa 0,0 l/m 0,0 km/h (0 Bft) SO 135 0 min 0,4 UV-I 15,5 C 15,6 C 0,0 km/h (0 Bft)
10.07.2011 04:25 17,6 C 22,1 C 16,1 C 17,0 C 15,7 C 0,0 C 87 % 94 % 0 % 1014,4 hPa 0,0 l/m 0,0 km/h (0 Bft) SO 135 0 min 0,7 UV-I 15,4 C 15,7 C 0,0 km/h (0 Bft)
10.07.2011 04:30 17,7 C 22,1 C 16,2 C 17,0 C 15,7 C 0,0 C 87 % 94 % 0 % 1014,9 hPa 0,0 l/m 0,0 km/h (0 Bft) S-SO 157 0 min 0,7 UV-I 15,5 C 15,7 C 0,0 km/h (0 Bft)
10.07.2011 04:35 17,6 C 22,1 C 16,0 C 17,0 C 15,7 C 0,0 C 86 % 94 % 0 % 1014,9 hPa 0,0 l/m 0,0 km/h (0 Bft) SO 135 0 min 0,7 UV-I 15,2 C 15,7 C 0,0 km/h (0 Bft)
10.07.2011 04:40 17,7 C 22,0 C 16,1 C 17,0 C 15,6 C 0,0 C 87 % 94 % 0 % 1014,9 hPa 0,0 l/m 0,0 km/h (0 Bft) SO 135 0 min 0,7 UV-I 15,5 C 15,6 C 0,0 km/h (0 Bft)
10.07.2011 04:45 17,6 C 22,0 C 16,0 C 16,9 C 15,4 C 0,0 C 86 % 94 % 0 % 1014,9 hPa 0,0 l/m 0,0 km/h (0 Bft) S 180 0 min 0,6 UV-I 15,2 C 15,4 C 0,0 km/h (0 Bft)
10.07.2011 04:50 17,7 C 22,0 C 16,1 C 16,9 C 15,4 C 0,0 C 87 % 94 % 0 % 1014,2 hPa 0,0 l/m 0,0 km/h (0 Bft) S 180 0 min 0,4 UV-I 15,5 C 15,4 C 0,0 km/h (0 Bft)
10.07.2011 04:55 17,7 C 22,0 C 16,0 C 16,9 C 15,2 C 0,0 C 87 % 94 % 0 % 1014,2 hPa 0,0 l/m 0,0 km/h (0 Bft) S 180 0 min 0,2 UV-I 15,5 C 15,2 C 0,0 km/h (0 Bft)
10.07.2011 05:00 17,6 C 22,0 C 16,0 C 16,8 C 15,2 C 0,0 C 86 % 94 % 0 % 1014,2 hPa 0,0 l/m 0,0 km/h (0 Bft) S 180 0 min 0,2 UV-I 15,2 C 15,2 C 0,0 km/h (0 Bft)
10.07.2011 05:09 17,5 C 21,9 C 15,9 C 16,7 C 15,2 C 0,0 C 86 % 94 % 0 % 1014,8 hPa 0,0 l/m 0,0 km/h (0 Bft) N 0 0 min 0,3 UV-I 15,1 C 15,2 C 0,0 km/h (0 Bft)
10.07.2011 05:15 17,5 C 21,9 C 15,8 C 16,7 C 15,2 C 0,0 C 86 % 94 % 0 % 1014,8 hPa 0,0 l/m 0,0 km/h (0 Bft) NW 315 0 min 0,3 UV-I 15,1 C 15,2 C 0,0 km/h (0 Bft)
10.07.2011 05:20 17,4 C 21,9 C 15,9 C 16,6 C 15,1 C 0,0 C 87 % 94 % 0 % 1014,8 hPa 0,0 l/m 0,0 km/h (0 Bft) W-SW 247 0 min 0,4 UV-I 15,2 C 15,1 C 0,0 km/h (0 Bft)
10.07.2011 05:25 17,5 C 21,9 C 15,9 C 16,7 C 15,2 C 0,0 C 87 % 95 % 0 % 1014,8 hPa 0,0 l/m 0,0 km/h (0 Bft) SW 225 0 min 0,5 UV-I 15,3 C 15,2 C 0,0 km/h (0 Bft)
10.07.2011 05:30 17,5 C 21,9 C 15,8 C 16,7 C 15,2 C 0,0 C 87 % 94 % 0 % 1015,0 hPa 0,0 l/m 0,2 km/h (0 Bft) W-SW 247 0 min 0,6 UV-I 15,3 C 15,2 C 0,0 km/h (0 Bft)
10.07.2011 05:35 17,5 C 21,9 C 15,9 C 16,7 C 15,2 C 0,0 C 86 % 95 % 0 % 1015,0 hPa 0,0 l/m 0,2 km/h (0 Bft) W 270 0 min 0,7 UV-I 15,1 C 15,2 C 0,0 km/h (0 Bft)
10.07.2011 05:40 17,4 C 21,9 C 15,9 C 16,7 C 15,2 C 0,0 C 86 % 95 % 0 % 1015,0 hPa 0,0 l/m 0,0 km/h (0 Bft) SW 225 0 min 0,6 UV-I 15,0 C 15,2 C 0,0 km/h (0 Bft)
10.07.2011 05:45 17,6 C 21,9 C 15,7 C 16,8 C 15,2 C 0,0 C 87 % 94 % 0 % 1015,0 hPa 0,0 l/m 0,0 km/h (0 Bft) SW 225 0 min 0,7 UV-I 15,4 C 15,2 C 0,0 km/h (0 Bft)
10.07.2011 05:50 17,5 C 21,9 C 15,7 C 16,7 C 15,2 C 0,0 C 86 % 94 % 0 % 1014,9 hPa 0,0 l/m 0,0 km/h (0 Bft) NW 315 0 min 0,9 UV-I 15,1 C 15,2 C 0,0 km/h (0 Bft)
10.07.2011 05:55 17,5 C 21,8 C 15,7 C 16,7 C 15,2 C 0,0 C 86 % 95 % 0 % 1014,9 hPa 0,0 l/m 0,0 km/h (0 Bft) NW 315 0 min 0,9 UV-I 15,1 C 15,2 C 0,0 km/h (0 Bft)
10.07.2011 06:00 17,5 C 21,8 C 15,8 C 16,7 C 15,2 C 0,0 C 87 % 94 % 0 % 1014,9 hPa 0,0 l/m 0,0 km/h (0 Bft) W-SW 247 0 min 1,0 UV-I 15,3 C 15,2 C 1,6 km/h (1 Bft)
10.07.2011 06:09 17,5 C 21,8 C 15,9 C 16,7 C 15,2 C 0,0 C 86 % 95 % 0 % 1015,1 hPa 0,0 l/m 0,2 km/h (0 Bft) N 0 0 min 0,8 UV-I 15,1 C 15,2 C 1,8 km/h (1 Bft)
10.07.2011 06:15 17,4 C 21,8 C 15,7 C 16,7 C 15,3 C 0,0 C 86 % 95 % 0 % 1015,1 hPa 0,0 l/m 0,0 km/h (0 Bft) S-SW 202 0 min 1,2 UV-I 15,0 C 15,3 C 0,0 km/h (0 Bft)
10.07.2011 06:20 17,4 C 21,8 C 15,8 C 16,7 C 15,3 C 0,0 C 86 % 95 % 0 % 1015,1 hPa 0,0 l/m 0,0 km/h (0 Bft) S-SW 202 0 min 1,4 UV-I 15,0 C 15,3 C 0,0 km/h (0 Bft)
10.07.2011 06:25 17,6 C 21,8 C 15,8 C 16,9 C 15,4 C 0,0 C 86 % 95 % 0 % 1015,1 hPa 0,0 l/m 0,0 km/h (0 Bft) SW 225 0 min 1,3 UV-I 15,2 C 15,4 C 0,0 km/h (0 Bft)
10.07.2011 06:30 17,7 C 21,8 C 15,9 C 16,9 C 15,4 C 0,0 C 86 % 95 % 0 % 1014,8 hPa 0,0 l/m 0,0 km/h (0 Bft) S 180 0 min 1,6 UV-I 15,3 C 15,4 C 0,0 km/h (0 Bft)
10.07.2011 06:35 17,8 C 21,7 C 15,8 C 17,1 C 15,6 C 0,0 C 86 % 95 % 0 % 1014,8 hPa 0,0 l/m 0,0 km/h (0 Bft) S-SW 202 0 min 2,2 UV-I 15,4 C 15,6 C 0,0 km/h (0 Bft)
10.07.2011 06:40 17,9 C 21,7 C 15,9 C 17,1 C 15,6 C 0,0 C 86 % 95 % 0 % 1014,8 hPa 0,0 l/m 0,0 km/h (0 Bft) SW 225 0 min 2,5 UV-I 15,5 C 15,6 C 0,0 km/h (0 Bft)
10.07.2011 06:45 18,1 C 21,7 C 15,9 C 17,3 C 15,7 C 0,0 C 85 % 95 % 0 % 1014,8 hPa 0,0 l/m 0,0 km/h (0 Bft) W-SW 247 0 min 2,4 UV-I 15,5 C 15,7 C 0,0 km/h (0 Bft)
10.07.2011 06:50 18,0 C 21,7 C 15,9 C 17,2 C 15,7 C 0,0 C 85 % 95 % 0 % 1015,0 hPa 0,0 l/m 0,0 km/h (0 Bft) SO 135 0 min 2,4 UV-I 15,4 C 15,7 C 0,0 km/h (0 Bft)
10.07.2011 06:55 18,5 C 21,7 C 15,9 C 17,6 C 15,9 C 0,0 C 85 % 95 % 0 % 1015,0 hPa 0,0 l/m 0,0 km/h (0 Bft) SO 135 0 min 3,5 UV-I 15,9 C 15,9 C 0,0 km/h (0 Bft)
10.07.2011 07:00 18,4 C 21,7 C 16,0 C 17,7 C 16,3 C 0,0 C 84 % 95 % 0 % 1015,0 hPa 0,0 l/m 0,0 km/h (0 Bft) SO 135 0 min 3,5 UV-I 15,6 C 16,3 C 0,0 km/h (0 Bft)
10.07.2011 07:09 18,2 C 21,7 C 16,4 C 18,0 C 17,7 C 0,0 C 85 % 95 % 0 % 1015,1 hPa 0,0 l/m 0,2 km/h (0 Bft) N 0 0 min 3,5 UV-I 15,6 C 17,7 C 0,0 km/h (0 Bft)
10.07.2011 07:15 18,3 C 21,6 C 16,4 C 18,2 C 18,1 C 0,0 C 85 % 95 % 0 % 1015,1 hPa 0,0 l/m 0,0 km/h (0 Bft) O-NO 67 0 min 3,5 UV-I 15,7 C 18,1 C 0,0 km/h (0 Bft)
10.07.2011 07:20 18,3 C 21,6 C 16,3 C 18,4 C 18,4 C 0,1 C 85 % 95 % 3 % 1015,1 hPa 0,0 l/m 0,0 km/h (0 Bft) O 90 0 min 3,5 UV-I 15,7 C 18,4 C 0,0 km/h (0 Bft)
10.07.2011 07:25 18,4 C 21,6 C 16,4 C 19,7 C 19,7 C 1,3 C 86 % 95 % 34 % 1015,1 hPa 0,0 l/m 0,0 km/h (0 Bft) S 180 0 min 0,0 UV-I 16,0 C 19,7 C 0,0 km/h (0 Bft)
10.07.2011 07:30 18,5 C 21,6 C 16,5 C 20,5 C 20,5 C 2,0 C 86 % 95 % 53 % 1015,0 hPa 0,0 l/m 0,0 km/h (0 Bft) SW 225 0 min 0,0 UV-I 16,1 C 20,5 C 0,0 km/h (0 Bft)
10.07.2011 07:35 18,7 C 21,6 C 16,7 C 21,5 C 21,5 C 2,8 C 86 % 95 % 74 % 1015,0 hPa 0,0 l/m 0,0 km/h (0 Bft) SW 225 0 min 0,0 UV-I 16,3 C 21,5 C 0,0 km/h (0 Bft)
10.07.2011 07:40 18,8 C 21,6 C 16,6 C 22,4 C 22,4 C 3,6 C 85 % 95 % 95 % 1015,0 hPa 0,0 l/m 0,3 km/h (0 Bft) S-SW 202 5 min 0,0 UV-I 16,2 C 22,4 C 2,3 km/h (1 Bft)
10.07.2011 07:45 19,1 C 21,4 C 16,7 C 24,0 C 24,0 C 4,9 C 85 % 95 % 100 % 1015,0 hPa 0,0 l/m 0,5 km/h (0 Bft) O-SO 112 5 min 0,0 UV-I 16,5 C 24,0 C 0,0 km/h (0 Bft)
10.07.2011 07:50 19,7 C 21,4 C 16,9 C 24,8 C 24,8 C 5,1 C 84 % 95 % 100 % 1015,2 hPa 0,0 l/m 0,6 km/h (0 Bft) W-NW 292 5 min 0,7 UV-I 16,9 C 24,8 C 0,0 km/h (0 Bft)
10.07.2011 07:55 20,1 C 21,5 C 16,9 C 25,7 C 25,7 C 5,6 C 82 % 95 % 100 % 1015,2 hPa 0,0 l/m 0,8 km/h (0 Bft) SW 225 5 min 0,6 UV-I 16,9 C 25,7 C 5,5 km/h (1 Bft)
10.07.2011 08:00 20,7 C 21,5 C 16,9 C 25,8 C 25,8 C 5,1 C 82 % 95 % 100 % 1015,2 hPa 0,0 l/m 1,4 km/h (1 Bft) W-SW 247 5 min 0,6 UV-I 17,5 C 25,8 C 3,4 km/h (1 Bft)
10.07.2011 08:09 20,5 C 21,4 C 17,1 C 24,6 C 24,6 C 4,1 C 80 % 95 % 100 % 1015,1 hPa 0,0 l/m 3,1 km/h (1 Bft) N 0 9 min 0,6 UV-I 16,9 C 24,6 C 3,4 km/h (1 Bft)
10.07.2011 08:15 20,5 C 21,3 C 17,1 C 25,0 C 25,0 C 4,5 C 80 % 95 % 100 % 1015,1 hPa 0,0 l/m 3,1 km/h (1 Bft) SW 225 6 min 0,7 UV-I 16,9 C 25,0 C 2,4 km/h (1 Bft)
10.07.2011 08:20 21,0 C 21,3 C 17,2 C 25,1 C 25,1 C 4,1 C 80 % 95 % 100 % 1015,1 hPa 0,0 l/m 3,1 km/h (1 Bft) W 270 5 min 0,7 UV-I 17,4 C 25,1 C 3,4 km/h (1 Bft)
10.07.2011 08:25 22,7 C 21,2 C 17,1 C 24,8 C 24,8 C 2,1 C 75 % 95 % 55 % 1015,1 hPa 0,0 l/m 4,3 km/h (1 Bft) W-SW 247 0 min 0,8 UV-I 18,0 C 24,8 C 8,4 km/h (2 Bft)
10.07.2011 08:30 22,2 C 21,2 C 17,2 C 24,5 C 24,5 C 2,3 C 75 % 95 % 61 % 1015,2 hPa 0,0 l/m 4,2 km/h (1 Bft) SW 225 0 min 0,8 UV-I 17,5 C 24,5 C 5,8 km/h (2 Bft)
10.07.2011 08:35 22,5 C 21,2 C 17,5 C 24,0 C 24,0 C 1,5 C 74 % 95 % 39 % 1015,2 hPa 0,0 l/m 2,7 km/h (1 Bft) W-SW 247 0 min 0,8 UV-I 17,6 C 24,0 C 2,1 km/h (1 Bft)
10.07.2011 08:40 23,3 C 21,2 C 17,5 C 24,0 C 24,0 C 0,7 C 73 % 95 % 18 % 1015,2 hPa 0,0 l/m 2,6 km/h (1 Bft) S 180 0 min 0,8 UV-I 18,2 C 24,0 C 4,3 km/h (1 Bft)
10.07.2011 08:45 22,1 C 21,2 C 17,7 C 24,6 C 24,6 C 2,5 C 74 % 95 % 66 % 1015,2 hPa 0,0 l/m 3,1 km/h (1 Bft) W-SW 247 0 min 0,9 UV-I 17,2 C 24,6 C 3,9 km/h (1 Bft)
10.07.2011 08:50 21,7 C 21,2 C 17,7 C 24,3 C 24,3 C 2,6 C 75 % 95 % 68 % 1015,1 hPa 0,0 l/m 2,9 km/h (1 Bft) SW 225 0 min 0,8 UV-I 17,1 C 24,3 C 3,4 km/h (1 Bft)
10.07.2011 08:55 21,4 C 21,2 C 17,6 C 23,3 C 23,3 C 1,9 C 76 % 95 % 50 % 1015,1 hPa 0,0 l/m 2,4 km/h (1 Bft) SW 225 0 min 0,8 UV-I 17,0 C 23,3 C 5,0 km/h (1 Bft)
10.07.2011 09:00 22,1 C 21,2 C 17,6 C 23,4 C 23,4 C 1,3 C 75 % 95 % 34 % 1015,1 hPa 0,0 l/m 2,7 km/h (1 Bft) S 180 0 min 1,0 UV-I 17,5 C 23,4 C 4,3 km/h (1 Bft)
10.07.2011 09:09 22,1 C 21,2 C 17,8 C 26,0 C 26,0 C 3,9 C 73 % 95 % 100 % 1015,1 hPa 0,0 l/m 2,9 km/h (1 Bft) N 0 9 min 1,3 UV-I 17,0 C 26,0 C 5,8 km/h (2 Bft)
10.07.2011 09:15 21,7 C 21,2 C 18,1 C 25,8 C 25,8 C 4,1 C 75 % 95 % 100 % 1015,1 hPa 0,0 l/m 3,1 km/h (1 Bft) W-SW 247 6 min 1,3 UV-I 17,1 C 25,8 C 3,7 km/h (1 Bft)
10.07.2011 09:20 21,5 C 21,2 C 18,0 C 24,9 C 24,9 C 3,4 C 76 % 95 % 89 % 1015,1 hPa 0,0 l/m 3,2 km/h (1 Bft) W 270 5 min 0,9 UV-I 17,1 C 24,9 C 2,4 km/h (1 Bft)
10.07.2011 09:25 21,5 C 21,2 C 18,2 C 24,9 C 24,9 C 3,4 C 76 % 95 % 89 % 1015,1 hPa 0,0 l/m 2,9 km/h (1 Bft) SW 225 5 min 1,2 UV-I 17,1 C 24,9 C 2,6 km/h (1 Bft)
10.07.2011 09:30 21,3 C 21,2 C 18,2 C 24,6 C 24,6 C 3,3 C 76 % 95 % 87 % 1015,2 hPa 0,0 l/m 3,2 km/h (1 Bft) W-SW 247 5 min 1,0 UV-I 16,9 C 24,6 C 8,2 km/h (2 Bft)
10.07.2011 09:35 21,4 C 21,1 C 18,2 C 24,6 C 24,6 C 3,2 C 76 % 94 % 84 % 1015,2 hPa 0,0 l/m 2,7 km/h (1 Bft) W 270 0 min 1,4 UV-I 17,0 C 24,6 C 0,0 km/h (0 Bft)
10.07.2011 09:40 21,5 C 21,1 C 18,4 C 24,9 C 24,9 C 3,4 C 76 % 94 % 89 % 1015,2 hPa 0,0 l/m 2,3 km/h (1 Bft) W-SW 247 5 min 1,2 UV-I 17,1 C 24,9 C 4,3 km/h (1 Bft)
10.07.2011 09:45 21,3 C 21,1 C 18,4 C 24,5 C 24,5 C 3,2 C 76 % 94 % 84 % 1015,2 hPa 0,0 l/m 2,7 km/h (1 Bft) SW 225 0 min 1,3 UV-I 16,9 C 24,5 C 3,5 km/h (1 Bft)
10.07.2011 09:50 21,1 C 21,1 C 18,4 C 24,0 C 24,0 C 2,9 C 76 % 94 % 76 % 1015,1 hPa 0,0 l/m 3,2 km/h (1 Bft) SW 225 0 min 1,3 UV-I 16,7 C 24,0 C 5,3 km/h (1 Bft)
10.07.2011 09:55 21,3 C 21,1 C 18,6 C 24,9 C 24,9 C 3,6 C 76 % 94 % 95 % 1015,1 hPa 0,0 l/m 1,8 km/h (1 Bft) W-NW 292 5 min 1,3 UV-I 16,9 C 24,9 C 2,9 km/h (1 Bft)
10.07.2011 10:00 21,5 C 21,1 C 18,7 C 25,9 C 25,9 C 4,4 C 76 % 94 % 100 % 1015,1 hPa 0,0 l/m 2,6 km/h (1 Bft) SW 225 5 min 1,5 UV-I 17,1 C 25,9 C 4,7 km/h (1 Bft)
10.07.2011 10:10 21,6 C 21,1 C 18,9 C 27,1 C 27,1 C 5,5 C 74 % 93 % 100 % 1015,0 hPa 0,0 l/m 3,7 km/h (1 Bft) N 0 10 min 1,4 UV-I 16,8 C 27,1 C 5,0 km/h (1 Bft)
10.07.2011 10:15 21,7 C 21,0 C 19,1 C 27,4 C 27,4 C 5,7 C 75 % 93 % 100 % 1015,0 hPa 0,0 l/m 3,1 km/h (1 Bft) W-SW 247 5 min 1,4 UV-I 17,1 C 27,4 C 3,9 km/h (1 Bft)
10.07.2011 10:20 21,8 C 21,0 C 19,2 C 27,9 C 27,9 C 6,1 C 74 % 93 % 100 % 1015,0 hPa 0,0 l/m 3,5 km/h (1 Bft) SW 225 5 min 1,5 UV-I 17,0 C 27,9 C 5,1 km/h (1 Bft)
10.07.2011 10:25 21,9 C 21,0 C 19,5 C 27,9 C 27,9 C 6,0 C 74 % 92 % 100 % 1015,0 hPa 0,0 l/m 3,9 km/h (1 Bft) S-SW 202 5 min 1,5 UV-I 17,0 C 27,9 C 1,9 km/h (1 Bft)
10.07.2011 10:30 22,0 C 21,0 C 19,5 C 28,4 C 28,4 C 6,4 C 73 % 92 % 100 % 1015,2 hPa 0,0 l/m 3,2 km/h (1 Bft) SW 225 5 min 1,6 UV-I 16,9 C 28,4 C 6,6 km/h (2 Bft)
10.07.2011 10:35 22,0 C 21,0 C 19,5 C 28,0 C 28,0 C 6,0 C 73 % 92 % 100 % 1015,2 hPa 0,0 l/m 3,2 km/h (1 Bft) SW 225 5 min 2,0 UV-I 16,9 C 28,0 C 4,0 km/h (1 Bft)
10.07.2011 10:40 22,1 C 21,0 C 19,7 C 28,4 C 28,4 C 6,3 C 73 % 92 % 100 % 1015,2 hPa 0,0 l/m 3,4 km/h (1 Bft) SW 225 5 min 2,9 UV-I 17,0 C 28,4 C 5,6 km/h (1 Bft)
10.07.2011 10:45 22,4 C 21,0 C 19,9 C 29,3 C 29,3 C 6,9 C 72 % 92 % 100 % 1015,2 hPa 0,0 l/m 2,6 km/h (1 Bft) W-SW 247 5 min 3,1 UV-I 17,1 C 29,3 C 7,6 km/h (2 Bft)
10.07.2011 10:50 22,5 C 21,1 C 20,1 C 29,5 C 29,5 C 7,0 C 72 % 91 % 100 % 1015,4 hPa 0,0 l/m 2,7 km/h (1 Bft) W-SW 247 5 min 2,9 UV-I 17,2 C 29,5 C 0,0 km/h (0 Bft)
10.07.2011 10:55 22,1 C 21,1 C 20,2 C 28,5 C 28,5 C 6,4 C 72 % 90 % 100 % 1015,4 hPa 0,0 l/m 2,3 km/h (1 Bft) SW 225 5 min 1,6 UV-I 16,8 C 28,5 C 5,3 km/h (1 Bft)
10.07.2011 11:00 22,0 C 21,1 C 20,0 C 26,8 C 26,8 C 4,8 C 72 % 90 % 100 % 1015,4 hPa 0,0 l/m 1,9 km/h (1 Bft) NW 315 5 min 1,0 UV-I 16,7 C 26,8 C 3,5 km/h (1 Bft)
10.07.2011 11:10 21,9 C 21,1 C 20,0 C 24,8 C 24,8 C 2,9 C 72 % 89 % 76 % 1015,7 hPa 0,0 l/m 2,1 km/h (1 Bft) N 0 0 min 1,8 UV-I 16,6 C 24,8 C 2,3 km/h (1 Bft)
10.07.2011 11:15 22,3 C 21,1 C 20,0 C 25,0 C 25,0 C 2,7 C 72 % 89 % 71 % 1015,7 hPa 0,0 l/m 3,1 km/h (1 Bft) SW 225 0 min 2,3 UV-I 17,0 C 25,0 C 3,1 km/h (1 Bft)
10.07.2011 11:20 22,5 C 21,1 C 20,3 C 26,2 C 26,2 C 3,7 C 70 % 88 % 97 % 1015,7 hPa 0,0 l/m 3,5 km/h (1 Bft) W-NW 292 5 min 3,3 UV-I 16,7 C 26,2 C 3,4 km/h (1 Bft)
10.07.2011 11:25 22,7 C 21,0 C 20,4 C 27,6 C 27,6 C 4,9 C 69 % 86 % 100 % 1015,7 hPa 0,0 l/m 2,7 km/h (1 Bft) SW 225 5 min 3,7 UV-I 16,7 C 27,6 C 0,0 km/h (0 Bft)
10.07.2011 11:30 22,8 C 21,0 C 20,5 C 28,5 C 28,5 C 5,7 C 70 % 86 % 100 % 1015,6 hPa 0,0 l/m 2,3 km/h (1 Bft) SW 225 5 min 3,4 UV-I 17,0 C 28,5 C 3,2 km/h (1 Bft)
10.07.2011 11:35 22,6 C 21,0 C 20,7 C 27,8 C 27,8 C 5,2 C 69 % 84 % 100 % 1015,6 hPa 0,0 l/m 1,3 km/h (1 Bft) SW 225 5 min 2,0 UV-I 16,6 C 27,8 C 0,0 km/h (0 Bft)
10.07.2011 11:40 22,5 C 21,0 C 20,6 C 27,1 C 27,1 C 4,6 C 70 % 85 % 100 % 1015,6 hPa 0,0 l/m 0,5 km/h (0 Bft) O 90 5 min 2,0 UV-I 16,7 C 27,1 C 0,0 km/h (0 Bft)
10.07.2011 11:45 22,7 C 21,0 C 20,6 C 26,6 C 26,6 C 3,9 C 69 % 83 % 100 % 1015,6 hPa 0,0 l/m 0,8 km/h (0 Bft) W-SW 247 5 min 2,1 UV-I 16,7 C 26,6 C 3,1 km/h (1 Bft)
10.07.2011 11:50 23,0 C 21,0 C 20,8 C 27,7 C 27,7 C 4,7 C 69 % 83 % 100 % 1015,5 hPa 0,0 l/m 1,0 km/h (0 Bft) SW 225 5 min 3,4 UV-I 17,0 C 27,7 C 3,4 km/h (1 Bft)
10.07.2011 11:55 23,3 C 21,1 C 21,0 C 28,9 C 28,9 C 5,6 C 69 % 83 % 100 % 1015,5 hPa 0,0 l/m 1,3 km/h (1 Bft) O-SO 112 5 min 3,1 UV-I 17,3 C 28,9 C 2,4 km/h (1 Bft)
10.07.2011 12:00 23,2 C 21,1 C 21,1 C 28,9 C 28,9 C 5,7 C 69 % 83 % 100 % 1015,5 hPa 0,0 l/m 1,1 km/h (1 Bft) W-NW 292 5 min 2,4 UV-I 17,2 C 28,9 C 2,6 km/h (1 Bft)
10.07.2011 12:10 23,6 C 21,1 C 21,6 C 29,4 C 29,4 C 5,8 C 67 % 78 % 100 % 1015,4 hPa 0,0 l/m 2,6 km/h (1 Bft) N 0 10 min 4,4 UV-I 17,1 C 29,4 C 0,0 km/h (0 Bft)
10.07.2011 12:15 23,3 C 21,1 C 21,8 C 28,9 C 28,9 C 5,6 C 66 % 77 % 100 % 1015,4 hPa 0,0 l/m 2,7 km/h (1 Bft) S 180 5 min 3,4 UV-I 16,6 C 28,9 C 1,6 km/h (1 Bft)
10.07.2011 12:20 23,2 C 21,1 C 21,6 C 27,5 C 27,5 C 4,3 C 66 % 79 % 100 % 1015,4 hPa 0,0 l/m 2,6 km/h (1 Bft) W 270 5 min 2,4 UV-I 16,5 C 27,5 C 3,7 km/h (1 Bft)
10.07.2011 12:25 23,4 C 21,1 C 21,9 C 27,9 C 27,9 C 4,5 C 66 % 77 % 100 % 1015,4 hPa 0,0 l/m 2,1 km/h (1 Bft) W 270 5 min 3,8 UV-I 16,7 C 27,9 C 2,4 km/h (1 Bft)
10.07.2011 12:30 23,5 C 21,1 C 21,9 C 28,0 C 28,0 C 4,5 C 64 % 74 % 100 % 1015,2 hPa 0,0 l/m 2,1 km/h (1 Bft) O 90 5 min 3,5 UV-I 16,3 C 28,0 C 1,8 km/h (1 Bft)
10.07.2011 12:35 23,7 C 21,1 C 22,0 C 27,9 C 27,9 C 4,2 C 65 % 75 % 100 % 1015,2 hPa 0,0 l/m 1,6 km/h (1 Bft) S-SO 157 5 min 3,3 UV-I 16,7 C 27,9 C 0,0 km/h (0 Bft)
10.07.2011 12:40 23,8 C 21,1 C 22,1 C 29,0 C 29,0 C 5,2 C 65 % 75 % 100 % 1015,2 hPa 0,0 l/m 1,4 km/h (1 Bft) SW 225 5 min 4,5 UV-I 16,8 C 29,0 C 4,5 km/h (1 Bft)
10.07.2011 12:45 23,7 C 21,1 C 22,3 C 28,4 C 28,4 C 4,7 C 65 % 75 % 100 % 1015,2 hPa 0,0 l/m 2,4 km/h (1 Bft) N 360 5 min 2,6 UV-I 16,7 C 28,4 C 1,8 km/h (1 Bft)
10.07.2011 12:50 23,6 C 21,1 C 22,1 C 28,5 C 28,5 C 4,9 C 64 % 74 % 100 % 1014,9 hPa 0,0 l/m 2,3 km/h (1 Bft) N-NO 22 5 min 3,6 UV-I 16,4 C 28,5 C 0,0 km/h (0 Bft)
10.07.2011 12:55 23,8 C 21,2 C 22,0 C 28,4 C 28,4 C 4,6 C 64 % 73 % 100 % 1014,9 hPa 0,0 l/m 0,8 km/h (0 Bft) NW 315 5 min 3,4 UV-I 16,6 C 28,4 C 3,2 km/h (1 Bft)
10.07.2011 13:00 24,1 C 21,2 C 22,2 C 29,6 C 29,6 C 5,5 C 64 % 73 % 100 % 1014,9 hPa 0,0 l/m 0,8 km/h (0 Bft) S 180 5 min 4,7 UV-I 16,9 C 29,6 C 1,9 km/h (1 Bft)
10.07.2011 13:10 24,5 C 21,2 C 23,0 C 31,6 C 31,6 C 7,1 C 62 % 72 % 100 % 1014,6 hPa 0,0 l/m 1,9 km/h (1 Bft) N 0 10 min 4,8 UV-I 16,7 C 31,6 C 0,0 km/h (0 Bft)
10.07.2011 13:15 24,7 C 21,2 C 23,1 C 31,5 C 31,5 C 6,8 C 61 % 70 % 100 % 1014,6 hPa 0,0 l/m 3,2 km/h (1 Bft) SW 225 5 min 4,6 UV-I 16,7 C 31,5 C 6,3 km/h (2 Bft)
10.07.2011 13:20 24,7 C 21,2 C 23,2 C 30,9 C 30,9 C 6,2 C 60 % 69 % 100 % 1014,6 hPa 0,0 l/m 3,2 km/h (1 Bft) O-NO 67 5 min 4,6 UV-I 16,4 C 30,9 C 0,0 km/h (0 Bft)
10.07.2011 13:25 24,6 C 21,2 C 23,5 C 30,8 C 30,8 C 6,2 C 61 % 72 % 100 % 1014,6 hPa 0,0 l/m 2,9 km/h (1 Bft) W-SW 247 5 min 4,4 UV-I 16,6 C 30,8 C 6,1 km/h (2 Bft)
10.07.2011 13:30 24,5 C 21,2 C 23,4 C 30,3 C 30,3 C 5,8 C 61 % 71 % 100 % 1014,7 hPa 0,0 l/m 3,1 km/h (1 Bft) W-SW 247 5 min 3,3 UV-I 16,5 C 30,3 C 6,1 km/h (2 Bft)
10.07.2011 13:35 24,7 C 21,2 C 23,4 C 29,6 C 29,6 C 4,9 C 60 % 69 % 100 % 1014,7 hPa 0,0 l/m 4,2 km/h (1 Bft) W 270 5 min 3,5 UV-I 16,4 C 29,6 C 7,2 km/h (2 Bft)
10.07.2011 13:40 24,8 C 21,2 C 23,5 C 29,9 C 29,9 C 5,1 C 59 % 68 % 100 % 1014,7 hPa 0,0 l/m 3,4 km/h (1 Bft) N 360 5 min 4,2 UV-I 16,2 C 29,9 C 0,0 km/h (0 Bft)
10.07.2011 13:45 25,0 C 21,2 C 23,9 C 30,7 C 30,7 C 5,7 C 60 % 67 % 100 % 1014,7 hPa 0,0 l/m 3,5 km/h (1 Bft) SW 225 5 min 4,9 UV-I 16,7 C 30,7 C 8,0 km/h (2 Bft)
10.07.2011 13:50 25,1 C 21,2 C 23,9 C 30,9 C 30,9 C 5,8 C 59 % 65 % 100 % 1014,8 hPa 0,0 l/m 2,7 km/h (1 Bft) N 360 5 min 4,9 UV-I 16,5 C 30,9 C 0,0 km/h (0 Bft)
10.07.2011 13:55 25,4 C 21,2 C 23,8 C 31,9 C 31,9 C 6,5 C 59 % 70 % 100 % 1014,8 hPa 0,0 l/m 1,6 km/h (1 Bft) N 360 5 min 5,0 UV-I 16,8 C 31,9 C 3,5 km/h (1 Bft)
10.07.2011 14:00 25,4 C 21,3 C 23,9 C 32,1 C 32,1 C 6,7 C 59 % 68 % 100 % 1014,8 hPa 0,0 l/m 0,8 km/h (0 Bft) W-SW 247 5 min 5,0 UV-I 16,8 C 32,1 C 0,0 km/h (0 Bft)
10.07.2011 14:10 25,4 C 21,3 C 24,4 C 31,9 C 31,9 C 6,5 C 57 % 64 % 100 % 1014,6 hPa 0,0 l/m 2,9 km/h (1 Bft) N 0 10 min 5,0 UV-I 16,2 C 31,9 C 0,0 km/h (0 Bft)
10.07.2011 14:15 25,5 C 21,3 C 24,3 C 32,4 C 32,4 C 6,9 C 57 % 66 % 100 % 1014,6 hPa 0,0 l/m 1,4 km/h (1 Bft) O-SO 112 5 min 4,7 UV-I 16,3 C 32,4 C 0,0 km/h (0 Bft)
10.07.2011 14:20 25,5 C 21,3 C 24,2 C 31,8 C 31,8 C 6,3 C 58 % 66 % 100 % 1014,6 hPa 0,0 l/m 1,4 km/h (1 Bft) NW 315 5 min 3,9 UV-I 16,6 C 31,8 C 4,8 km/h (1 Bft)
10.07.2011 14:25 25,6 C 21,4 C 24,3 C 31,7 C 31,7 C 6,1 C 58 % 67 % 100 % 1014,6 hPa 0,0 l/m 1,6 km/h (1 Bft) O-NO 67 5 min 4,2 UV-I 16,7 C 31,7 C 3,7 km/h (1 Bft)
10.07.2011 14:30 25,9 C 21,4 C 24,4 C 32,1 C 32,1 C 6,2 C 58 % 64 % 100 % 1014,4 hPa 0,0 l/m 1,4 km/h (1 Bft) O-NO 67 5 min 4,2 UV-I 17,0 C 32,1 C 2,4 km/h (1 Bft)
10.07.2011 14:35 25,8 C 21,4 C 24,5 C 32,3 C 32,3 C 6,5 C 56 % 63 % 100 % 1014,4 hPa 0,0 l/m 2,4 km/h (1 Bft) O-NO 67 5 min 4,1 UV-I 16,3 C 32,3 C 3,7 km/h (1 Bft)
10.07.2011 14:40 25,9 C 21,4 C 24,6 C 31,8 C 31,8 C 5,9 C 57 % 65 % 100 % 1014,4 hPa 0,0 l/m 3,4 km/h (1 Bft) S-SO 157 5 min 4,0 UV-I 16,7 C 31,8 C 1,8 km/h (1 Bft)
10.07.2011 14:43 25,9 C 21,4 C 24,8 C 31,9 C 31,9 C 6,0 C 57 % 65 % 100 % 1014,4 hPa 0,0 l/m 2,4 km/h (1 Bft) W-SW 247 3 min 3,6 UV-I 16,7 C 31,9 C 0,0 km/h (0 Bft)
10.07.2011 14:44 25,9 C 21,4 C 24,8 C 31,9 C 31,9 C 6,0 C 57 % 65 % 100 % 1014,4 hPa 0,0 l/m 2,4 km/h (1 Bft) W-SW 247 1 min 3,6 UV-I 16,7 C 31,9 C 0,0 km/h (0 Bft)
10.07.2011 14:50 26,3 C 21,5 C 25,3 C 32,3 C 32,3 C 6,0 C 57 % 64 % 100 % 1014,5 hPa 0,0 l/m 1,6 km/h (1 Bft) O-NO 67 6 min 3,6 UV-I 17,1 C 32,3 C 3,4 km/h (1 Bft)
10.07.2011 14:55 26,3 C 21,5 C 25,5 C 32,9 C 32,9 C 6,6 C 56 % 61 % 100 % 1014,5 hPa 0,0 l/m 1,6 km/h (1 Bft) W 270 5 min 3,6 UV-I 16,8 C 32,9 C 3,5 km/h (1 Bft)
10.07.2011 15:00 26,2 C 21,5 C 25,4 C 32,7 C 32,7 C 6,5 C 57 % 63 % 100 % 1014,5 hPa 0,0 l/m 2,1 km/h (1 Bft) N 360 5 min 3,2 UV-I 17,0 C 32,7 C 1,9 km/h (1 Bft)
10.07.2011 15:10 25,9 C 21,5 C 25,2 C 30,8 C 30,8 C 4,9 C 56 % 61 % 100 % 1014,1 hPa 0,0 l/m 1,8 km/h (1 Bft) N 0 10 min 2,3 UV-I 16,4 C 30,8 C 4,3 km/h (1 Bft)
10.07.2011 15:15 25,5 C 21,5 C 25,1 C 29,3 C 29,3 C 3,8 C 57 % 62 % 100 % 1014,1 hPa 0,0 l/m 3,7 km/h (1 Bft) O-NO 67 5 min 2,2 UV-I 16,3 C 29,3 C 4,3 km/h (1 Bft)
10.07.2011 15:20 25,6 C 21,5 C 25,1 C 28,7 C 28,7 C 3,1 C 58 % 62 % 82 % 1014,1 hPa 0,0 l/m 3,2 km/h (1 Bft) NO 45 0 min 2,2 UV-I 16,7 C 28,7 C 2,3 km/h (1 Bft)
10.07.2011 15:25 25,5 C 21,6 C 25,0 C 28,7 C 28,7 C 3,2 C 58 % 62 % 84 % 1014,1 hPa 0,0 l/m 1,4 km/h (1 Bft) SO 135 0 min 2,1 UV-I 16,6 C 28,7 C 0,0 km/h (0 Bft)
10.07.2011 15:30 25,6 C 21,6 C 25,0 C 28,4 C 28,4 C 2,8 C 58 % 62 % 74 % 1014,0 hPa 0,0 l/m 1,1 km/h (1 Bft) NO 45 0 min 1,9 UV-I 16,7 C 28,4 C 3,1 km/h (1 Bft)
10.07.2011 15:35 26,0 C 21,6 C 25,4 C 29,8 C 29,8 C 3,8 C 57 % 64 % 100 % 1014,0 hPa 0,0 l/m 1,1 km/h (1 Bft) N-NO 22 5 min 2,8 UV-I 16,8 C 29,8 C 0,0 km/h (0 Bft)
10.07.2011 15:40 26,2 C 21,7 C 25,9 C 31,0 C 31,0 C 4,8 C 57 % 60 % 100 % 1014,0 hPa 0,0 l/m 0,8 km/h (0 Bft) SW 225 5 min 2,3 UV-I 17,0 C 31,0 C 0,0 km/h (0 Bft)
10.07.2011 15:45 26,4 C 21,7 C 26,1 C 32,1 C 32,1 C 5,7 C 56 % 59 % 100 % 1014,0 hPa 0,0 l/m 0,6 km/h (0 Bft) W 270 5 min 1,7 UV-I 16,9 C 32,1 C 2,4 km/h (1 Bft)
10.07.2011 15:50 26,5 C 21,7 C 26,1 C 32,3 C 32,3 C 5,8 C 55 % 58 % 100 % 1014,1 hPa 0,0 l/m 1,3 km/h (1 Bft) N-NO 22 5 min 1,6 UV-I 16,7 C 32,3 C 0,0 km/h (0 Bft)
10.07.2011 15:55 26,6 C 21,8 C 26,4 C 32,3 C 32,3 C 5,7 C 55 % 58 % 100 % 1014,1 hPa 0,0 l/m 1,4 km/h (1 Bft) W-NW 292 5 min 1,6 UV-I 16,8 C 32,3 C 0,0 km/h (0 Bft)
10.07.2011 16:00 26,3 C 21,8 C 26,3 C 32,1 C 32,1 C 5,8 C 55 % 57 % 100 % 1014,1 hPa 0,0 l/m 1,6 km/h (1 Bft) S 180 5 min 1,5 UV-I 16,5 C 32,1 C 1,9 km/h (1 Bft)
10.07.2011 16:09 26,3 C 21,9 C 26,1 C 31,4 C 31,4 C 5,1 C 55 % 58 % 100 % 1013,8 hPa 0,0 l/m 1,1 km/h (1 Bft) N 0 9 min 2,0 UV-I 16,5 C 31,4 C 1,8 km/h (1 Bft)
10.07.2011 16:15 26,4 C 21,9 C 26,0 C 31,7 C 31,7 C 5,3 C 55 % 57 % 100 % 1013,8 hPa 0,0 l/m 1,1 km/h (1 Bft) O-NO 67 6 min 2,0 UV-I 16,6 C 31,7 C 0,0 km/h (0 Bft)
10.07.2011 16:20 26,5 C 22,0 C 25,9 C 31,8 C 31,8 C 5,3 C 55 % 58 % 100 % 1013,8 hPa 0,0 l/m 1,3 km/h (1 Bft) NO 45 5 min 2,0 UV-I 16,7 C 31,8 C 1,8 km/h (1 Bft)
10.07.2011 16:25 26,6 C 22,0 C 25,8 C 31,7 C 31,7 C 5,1 C 56 % 59 % 100 % 1013,8 hPa 0,0 l/m 1,9 km/h (1 Bft) O-NO 67 5 min 1,9 UV-I 17,1 C 31,7 C 2,7 km/h (1 Bft)
10.07.2011 16:30 26,9 C 22,0 C 26,1 C 32,0 C 32,0 C 5,1 C 55 % 59 % 100 % 1013,7 hPa 0,0 l/m 1,9 km/h (1 Bft) N-NW 337 5 min 1,9 UV-I 17,1 C 32,0 C 2,7 km/h (1 Bft)
10.07.2011 16:35 26,9 C 22,0 C 26,1 C 32,2 C 32,2 C 5,3 C 54 % 57 % 100 % 1013,7 hPa 0,0 l/m 1,8 km/h (1 Bft) NW 315 5 min 1,8 UV-I 16,8 C 32,2 C 5,8 km/h (2 Bft)
10.07.2011 16:40 27,0 C 22,2 C 26,0 C 32,6 C 32,6 C 5,6 C 54 % 57 % 100 % 1013,7 hPa 0,0 l/m 1,8 km/h (1 Bft) SO 135 5 min 1,9 UV-I 16,9 C 32,6 C 2,6 km/h (1 Bft)
10.07.2011 16:45 26,9 C 22,2 C 26,0 C 32,4 C 32,4 C 5,5 C 53 % 58 % 100 % 1013,7 hPa 0,0 l/m 2,3 km/h (1 Bft) O-NO 67 5 min 1,7 UV-I 16,5 C 32,4 C 5,8 km/h (2 Bft)
10.07.2011 16:50 26,9 C 22,2 C 25,9 C 31,9 C 31,9 C 5,0 C 53 % 58 % 100 % 1013,5 hPa 0,0 l/m 3,2 km/h (1 Bft) O-NO 67 5 min 1,6 UV-I 16,5 C 31,9 C 5,5 km/h (1 Bft)
10.07.2011 16:55 26,9 C 22,2 C 25,8 C 31,2 C 31,2 C 4,3 C 55 % 60 % 100 % 1013,5 hPa 0,0 l/m 3,2 km/h (1 Bft) NW 315 5 min 1,5 UV-I 17,1 C 31,2 C 3,9 km/h (1 Bft)
10.07.2011 17:00 26,9 C 22,2 C 25,8 C 31,3 C 31,3 C 4,4 C 52 % 58 % 100 % 1013,5 hPa 0,0 l/m 2,6 km/h (1 Bft) O-SO 112 5 min 1,4 UV-I 16,2 C 31,3 C 2,1 km/h (1 Bft)
10.07.2011 17:09 27,1 C 22,3 C 25,7 C 32,1 C 32,1 C 5,0 C 53 % 57 % 100 % 1013,1 hPa 0,0 l/m 0,6 km/h (0 Bft) N 0 9 min 1,3 UV-I 16,7 C 32,1 C 0,0 km/h (0 Bft)
10.07.2011 17:15 27,5 C 22,3 C 25,7 C 32,5 C 32,5 C 5,0 C 53 % 59 % 100 % 1013,1 hPa 0,0 l/m 1,6 km/h (1 Bft) O-NO 67 6 min 1,3 UV-I 17,0 C 32,5 C 3,9 km/h (1 Bft)
10.07.2011 17:20 27,3 C 22,3 C 25,9 C 32,5 C 32,5 C 5,2 C 52 % 57 % 100 % 1013,1 hPa 0,0 l/m 1,8 km/h (1 Bft) NW 315 5 min 1,2 UV-I 16,6 C 32,5 C 2,4 km/h (1 Bft)
10.07.2011 17:25 27,5 C 22,3 C 25,8 C 32,7 C 32,7 C 5,2 C 53 % 58 % 100 % 1013,1 hPa 0,0 l/m 1,4 km/h (1 Bft) O-NO 67 5 min 1,1 UV-I 17,0 C 32,7 C 6,0 km/h (2 Bft)
10.07.2011 17:30 27,5 C 22,3 C 26,1 C 32,6 C 32,6 C 5,1 C 53 % 61 % 100 % 1012,9 hPa 0,0 l/m 2,1 km/h (1 Bft) W-NW 292 5 min 1,1 UV-I 17,0 C 32,6 C 8,7 km/h (2 Bft)
10.07.2011 17:35 27,7 C 22,4 C 26,1 C 32,5 C 32,5 C 4,8 C 53 % 56 % 100 % 1012,9 hPa 0,0 l/m 2,1 km/h (1 Bft) O-NO 67 5 min 1,0 UV-I 17,2 C 32,5 C 0,0 km/h (0 Bft)
10.07.2011 17:40 27,8 C 22,4 C 26,0 C 32,7 C 32,7 C 4,9 C 53 % 60 % 100 % 1012,9 hPa 0,0 l/m 1,3 km/h (1 Bft) W 270 5 min 1,0 UV-I 17,3 C 32,7 C 2,9 km/h (1 Bft)
10.07.2011 17:45 27,5 C 22,4 C 25,7 C 32,0 C 32,0 C 4,5 C 53 % 59 % 100 % 1012,9 hPa 0,0 l/m 1,0 km/h (0 Bft) N-NO 22 5 min 0,8 UV-I 17,0 C 32,0 C 1,8 km/h (1 Bft)
10.07.2011 17:50 27,7 C 22,4 C 25,7 C 31,6 C 31,6 C 3,9 C 53 % 59 % 100 % 1013,1 hPa 0,0 l/m 1,1 km/h (1 Bft) N 360 5 min 0,8 UV-I 17,2 C 31,6 C 0,0 km/h (0 Bft)
10.07.2011 17:55 27,8 C 22,4 C 25,7 C 31,9 C 31,9 C 4,1 C 53 % 61 % 100 % 1013,1 hPa 0,0 l/m 1,3 km/h (1 Bft) N-NW 337 5 min 0,8 UV-I 17,3 C 31,9 C 2,7 km/h (1 Bft)
10.07.2011 18:00 28,1 C 22,4 C 25,8 C 32,2 C 32,2 C 4,1 C 52 % 58 % 100 % 1013,1 hPa 0,0 l/m 1,0 km/h (0 Bft) O-SO 112 5 min 0,7 UV-I 17,3 C 32,2 C 0,0 km/h (0 Bft)
10.07.2011 18:09 28,0 C 22,5 C 25,9 C 32,7 C 32,7 C 4,7 C 52 % 58 % 100 % 1012,6 hPa 0,0 l/m 0,8 km/h (0 Bft) N 0 9 min 0,7 UV-I 17,2 C 32,7 C 0,0 km/h (0 Bft)
10.07.2011 18:15 27,9 C 22,5 C 25,7 C 32,6 C 32,6 C 4,7 C 53 % 61 % 100 % 1012,6 hPa 0,0 l/m 0,8 km/h (0 Bft) O-SO 112 6 min 0,6 UV-I 17,4 C 32,6 C 0,0 km/h (0 Bft)
10.07.2011 18:20 28,0 C 22,5 C 25,6 C 32,6 C 32,6 C 4,6 C 52 % 60 % 100 % 1012,6 hPa 0,0 l/m 1,0 km/h (0 Bft) O-NO 67 5 min 0,6 UV-I 17,2 C 32,6 C 2,3 km/h (1 Bft)
10.07.2011 18:25 27,7 C 22,5 C 25,5 C 32,1 C 32,1 C 4,4 C 52 % 58 % 100 % 1012,6 hPa 0,0 l/m 1,1 km/h (1 Bft) O-SO 112 5 min 0,5 UV-I 16,9 C 32,1 C 0,0 km/h (0 Bft)
10.07.2011 18:30 27,5 C 22,5 C 25,5 C 31,6 C 31,6 C 4,1 C 52 % 61 % 100 % 1012,8 hPa 0,0 l/m 0,8 km/h (0 Bft) O-NO 67 5 min 0,4 UV-I 16,7 C 31,6 C 0,0 km/h (0 Bft)
10.07.2011 18:35 27,1 C 22,5 C 25,1 C 30,5 C 30,5 C 3,4 C 53 % 60 % 89 % 1012,8 hPa 0,0 l/m 0,5 km/h (0 Bft) O 90 5 min 0,4 UV-I 16,7 C 30,5 C 1,9 km/h (1 Bft)
10.07.2011 18:40 26,8 C 22,5 C 25,0 C 29,5 C 29,5 C 2,7 C 54 % 62 % 71 % 1012,8 hPa 0,0 l/m 0,5 km/h (0 Bft) W-NW 292 0 min 0,3 UV-I 16,7 C 29,5 C 0,0 km/h (0 Bft)
10.07.2011 18:45 26,5 C 22,5 C 24,7 C 28,5 C 28,5 C 2,0 C 55 % 63 % 53 % 1012,8 hPa 0,0 l/m 0,5 km/h (0 Bft) NW 315 0 min 0,3 UV-I 16,7 C 28,5 C 0,0 km/h (0 Bft)
10.07.2011 18:50 26,4 C 22,5 C 24,6 C 27,8 C 27,8 C 1,4 C 55 % 63 % 37 % 1012,2 hPa 0,0 l/m 0,3 km/h (0 Bft) O-NO 67 0 min 0,3 UV-I 16,6 C 27,8 C 0,0 km/h (0 Bft)
10.07.2011 18:55 26,3 C 22,5 C 24,5 C 27,0 C 27,0 C 0,7 C 56 % 63 % 18 % 1012,2 hPa 0,0 l/m 0,3 km/h (0 Bft) SO 135 0 min 0,2 UV-I 16,8 C 27,0 C 0,0 km/h (0 Bft)
10.07.2011 19:00 26,1 C 22,5 C 24,4 C 26,6 C 26,6 C 0,5 C 58 % 65 % 13 % 1012,2 hPa 0,0 l/m 0,3 km/h (0 Bft) NO 45 0 min 0,2 UV-I 17,2 C 26,6 C 2,4 km/h (1 Bft)
10.07.2011 19:09 25,7 C 22,5 C 24,2 C 25,8 C 25,8 C 0,1 C 58 % 64 % 3 % 1012,2 hPa 0,0 l/m 2,4 km/h (1 Bft) N 0 0 min 0,1 UV-I 16,8 C 25,8 C 1,9 km/h (1 Bft)
10.07.2011 19:15 25,5 C 22,5 C 24,0 C 25,5 C 25,5 C 0,0 C 59 % 68 % 0 % 1012,2 hPa 0,0 l/m 1,0 km/h (0 Bft) O 90 0 min 0,1 UV-I 16,9 C 25,5 C 0,0 km/h (0 Bft)
10.07.2011 19:20 25,4 C 22,5 C 23,7 C 25,4 C 25,3 C 0,0 C 60 % 69 % 0 % 1012,2 hPa 0,0 l/m 0,2 km/h (0 Bft) N-NO 22 0 min 0,1 UV-I 17,1 C 25,3 C 0,0 km/h (0 Bft)
10.07.2011 19:25 25,2 C 22,5 C 23,6 C 25,1 C 25,0 C 0,0 C 61 % 69 % 0 % 1012,2 hPa 0,0 l/m 0,0 km/h (0 Bft) O-NO 67 0 min 0,1 UV-I 17,1 C 25,0 C 0,0 km/h (0 Bft)
10.07.2011 19:30 25,2 C 22,5 C 23,6 C 25,1 C 24,9 C 0,0 C 62 % 71 % 0 % 1011,9 hPa 0,0 l/m 0,0 km/h (0 Bft) O 90 0 min 0,1 UV-I 17,4 C 24,9 C 0,0 km/h (0 Bft)
10.07.2011 19:35 25,1 C 22,5 C 23,5 C 24,9 C 24,6 C 0,0 C 62 % 70 % 0 % 1011,9 hPa 0,0 l/m 0,3 km/h (0 Bft) O-NO 67 0 min 0,0 UV-I 17,3 C 24,6 C 0,0 km/h (0 Bft)
10.07.2011 19:40 24,9 C 22,6 C 23,3 C 24,8 C 24,5 C 0,0 C 63 % 72 % 0 % 1011,9 hPa 0,0 l/m 0,3 km/h (0 Bft) O-NO 67 0 min 0,0 UV-I 17,4 C 24,5 C 0,0 km/h (0 Bft)
10.07.2011 19:45 24,7 C 22,6 C 23,1 C 24,6 C 24,3 C 0,0 C 64 % 73 % 0 % 1011,9 hPa 0,0 l/m 0,0 km/h (0 Bft) O-NO 67 0 min 0,0 UV-I 17,4 C 24,3 C 0,0 km/h (0 Bft)
10.07.2011 19:50 24,7 C 22,6 C 23,0 C 24,5 C 24,1 C 0,0 C 65 % 73 % 0 % 1011,8 hPa 0,0 l/m 0,0 km/h (0 Bft) O 90 0 min 0,0 UV-I 17,7 C 24,1 C 0,0 km/h (0 Bft)
10.07.2011 19:55 24,5 C 22,6 C 22,8 C 24,2 C 23,7 C 0,0 C 65 % 75 % 0 % 1011,8 hPa 0,0 l/m 0,0 km/h (0 Bft) O-NO 67 0 min 0,0 UV-I 17,5 C 23,7 C 0,0 km/h (0 Bft)
10.07.2011 20:00 24,4 C 22,6 C 22,7 C 24,1 C 23,6 C 0,0 C 65 % 74 % 0 % 1011,8 hPa 0,0 l/m 0,0 km/h (0 Bft) O-NO 67 0 min 0,0 UV-I 17,4 C 23,6 C 0,0 km/h (0 Bft)
10.07.2011 20:09 24,3 C 22,6 C 22,5 C 23,9 C 23,2 C 0,0 C 66 % 76 % 0 % 1011,8 hPa 0,0 l/m 0,0 km/h (0 Bft) N 0 0 min 0,0 UV-I 17,5 C 23,2 C 0,0 km/h (0 Bft)
10.07.2011 20:15 24,0 C 22,6 C 22,3 C 23,7 C 23,0 C 0,0 C 67 % 76 % 0 % 1011,8 hPa 0,0 l/m 0,0 km/h (0 Bft) O 90 0 min 0,0 UV-I 17,5 C 23,0 C 0,0 km/h (0 Bft)
10.07.2011 20:20 23,9 C 22,6 C 22,1 C 23,6 C 22,9 C 0,0 C 68 % 77 % 0 % 1011,8 hPa 0,0 l/m 0,0 km/h (0 Bft) O-NO 67 0 min 0,0 UV-I 17,6 C 22,9 C 0,0 km/h (0 Bft)
10.07.2011 20:25 23,9 C 22,6 C 22,0 C 23,5 C 22,7 C 0,0 C 67 % 77 % 0 % 1011,8 hPa 0,0 l/m 0,2 km/h (0 Bft) O-NO 67 0 min 0,0 UV-I 17,4 C 22,7 C 2,9 km/h (1 Bft)
10.07.2011 20:30 23,8 C 22,6 C 22,0 C 23,4 C 22,7 C 0,0 C 67 % 75 % 0 % 1012,0 hPa 0,0 l/m 1,3 km/h (1 Bft) O-NO 67 0 min 0,0 UV-I 17,3 C 22,7 C 2,7 km/h (1 Bft)
10.07.2011 20:35 23,6 C 22,6 C 22,0 C 23,3 C 22,7 C 0,0 C 66 % 76 % 0 % 1012,0 hPa 0,0 l/m 1,8 km/h (1 Bft) O-NO 67 0 min 0,0 UV-I 16,9 C 22,7 C 2,1 km/h (1 Bft)
10.07.2011 20:40 23,6 C 22,6 C 22,0 C 23,3 C 22,7 C 0,0 C 66 % 74 % 0 % 1012,0 hPa 0,0 l/m 1,8 km/h (1 Bft) O 90 0 min 0,0 UV-I 16,9 C 22,7 C 2,6 km/h (1 Bft)
10.07.2011 20:45 23,7 C 22,6 C 22,2 C 23,4 C 22,7 C 0,0 C 65 % 72 % 0 % 1012,0 hPa 0,0 l/m 2,4 km/h (1 Bft) O-NO 67 0 min 0,0 UV-I 16,7 C 22,7 C 3,4 km/h (1 Bft)
10.07.2011 20:50 23,6 C 22,6 C 22,4 C 23,3 C 22,7 C 0,0 C 66 % 72 % 0 % 1011,4 hPa 0,0 l/m 2,6 km/h (1 Bft) O 90 0 min 0,0 UV-I 16,9 C 22,7 C 2,9 km/h (1 Bft)
10.07.2011 20:55 23,6 C 22,6 C 22,2 C 23,2 C 22,5 C 0,0 C 66 % 73 % 0 % 1011,4 hPa 0,0 l/m 1,4 km/h (1 Bft) NO 45 0 min 0,0 UV-I 16,9 C 22,5 C 0,0 km/h (0 Bft)
10.07.2011 21:00 23,5 C 22,6 C 22,0 C 23,1 C 22,4 C 0,0 C 67 % 75 % 0 % 1011,4 hPa 0,0 l/m 0,5 km/h (0 Bft) O-NO 67 0 min 0,0 UV-I 17,0 C 22,4 C 0,0 km/h (0 Bft)
10.07.2011 21:09 23,2 C 22,6 C 21,7 C 22,8 C 21,9 C 0,0 C 68 % 76 % 0 % 1011,4 hPa 0,0 l/m 0,5 km/h (0 Bft) N 0 0 min 0,0 UV-I 17,0 C 21,9 C 1,8 km/h (1 Bft)
10.07.2011 21:15 23,1 C 22,6 C 21,5 C 22,6 C 21,5 C 0,0 C 69 % 78 % 0 % 1011,4 hPa 0,0 l/m 0,5 km/h (0 Bft) O-NO 67 0 min 0,0 UV-I 17,1 C 21,5 C 0,0 km/h (0 Bft)
10.07.2011 21:20 22,8 C 22,6 C 21,3 C 22,3 C 21,3 C 0,0 C 70 % 79 % 0 % 1011,4 hPa 0,0 l/m 0,2 km/h (0 Bft) O-NO 67 0 min 0,0 UV-I 17,0 C 21,3 C 0,0 km/h (0 Bft)
10.07.2011 21:25 22,8 C 22,6 C 21,3 C 22,3 C 21,3 C 0,0 C 70 % 79 % 0 % 1011,4 hPa 0,0 l/m 0,3 km/h (0 Bft) N-NO 22 0 min 0,0 UV-I 17,0 C 21,3 C 0,0 km/h (0 Bft)
10.07.2011 21:30 22,9 C 22,6 C 21,2 C 22,3 C 21,2 C 0,0 C 72 % 79 % 0 % 1010,9 hPa 0,0 l/m 0,2 km/h (0 Bft) N-NO 22 0 min 0,0 UV-I 17,6 C 21,2 C 0,0 km/h (0 Bft)
10.07.2011 21:35 22,9 C 22,7 C 21,1 C 22,2 C 20,8 C 0,0 C 73 % 80 % 0 % 1010,9 hPa 0,0 l/m 0,0 km/h (0 Bft) W-SW 247 0 min 0,0 UV-I 17,8 C 20,8 C 0,0 km/h (0 Bft)
10.07.2011 21:40 22,8 C 22,7 C 21,1 C 22,0 C 20,4 C 0,0 C 74 % 82 % 0 % 1010,9 hPa 0,0 l/m 0,5 km/h (0 Bft) W-SW 247 0 min 0,0 UV-I 17,9 C 20,4 C 2,4 km/h (1 Bft)
10.07.2011 21:45 22,6 C 22,6 C 20,8 C 21,7 C 20,0 C 0,0 C 74 % 82 % 0 % 1010,9 hPa 0,0 l/m 2,1 km/h (1 Bft) SW 225 0 min 0,0 UV-I 17,7 C 20,0 C 2,7 km/h (1 Bft)
10.07.2011 21:50 22,4 C 22,6 C 20,8 C 21,6 C 19,9 C 0,0 C 74 % 82 % 0 % 1011,2 hPa 0,0 l/m 3,2 km/h (1 Bft) W 270 0 min 0,0 UV-I 17,5 C 19,9 C 7,2 km/h (2 Bft)
10.07.2011 21:55 22,3 C 22,6 C 20,5 C 21,5 C 20,0 C 0,0 C 74 % 82 % 0 % 1011,2 hPa 0,0 l/m 8,5 km/h (2 Bft) W-NW 292 0 min 0,0 UV-I 17,4 C 20,0 C 20,3 km/h (4 Bft)
10.07.2011 22:00 21,8 C 22,6 C 20,2 C 21,1 C 19,8 C 0,0 C 76 % 84 % 0 % 1011,2 hPa 0,0 l/m 11,6 km/h (2 Bft) W-SW 247 0 min 0,0 UV-I 17,4 C 19,8 C 10,3 km/h (2 Bft)
10.07.2011 22:09 20,8 C 23,0 C 18,9 C 20,0 C 18,4 C 0,0 C 81 % 88 % 0 % 1012,3 hPa 1,4 l/m 12,6 km/h (3 Bft) N 0 0 min 0,0 UV-I 17,4 C 18,4 C 27,4 km/h (4 Bft)
10.07.2011 22:15 20,5 C 23,0 C 18,5 C 19,7 C 18,1 C 0,0 C 82 % 90 % 0 % 1012,3 hPa 0,0 l/m 10,0 km/h (2 Bft) W-SW 247 0 min 0,0 UV-I 17,3 C 18,1 C 9,3 km/h (2 Bft)
10.07.2011 22:20 20,3 C 23,0 C 18,3 C 19,5 C 17,9 C 0,0 C 82 % 90 % 0 % 1012,3 hPa 0,0 l/m 9,0 km/h (2 Bft) W-SW 247 0 min 0,0 UV-I 17,1 C 17,9 C 10,8 km/h (2 Bft)
10.07.2011 22:25 20,0 C 22,9 C 18,1 C 19,3 C 17,8 C 0,0 C 83 % 91 % 0 % 1012,3 hPa 0,7 l/m 9,8 km/h (2 Bft) SW 225 0 min 0,0 UV-I 17,0 C 17,8 C 15,1 km/h (3 Bft)
10.07.2011 22:30 19,9 C 22,9 C 18,1 C 19,2 C 17,7 C 0,0 C 84 % 92 % 0 % 1011,9 hPa 0,7 l/m 10,8 km/h (2 Bft) SW 225 0 min 0,0 UV-I 17,1 C 17,7 C 13,7 km/h (3 Bft)
10.07.2011 22:35 19,7 C 22,9 C 17,8 C 19,0 C 17,7 C 0,0 C 84 % 92 % 0 % 1011,9 hPa 0,7 l/m 10,1 km/h (2 Bft) NW 315 0 min 0,0 UV-I 16,9 C 17,7 C 14,2 km/h (3 Bft)
10.07.2011 22:40 19,7 C 23,0 C 17,8 C 19,0 C 17,7 C 0,0 C 85 % 93 % 0 % 1011,9 hPa 0,0 l/m 9,2 km/h (2 Bft) S 180 0 min 0,0 UV-I 17,1 C 17,7 C 9,7 km/h (2 Bft)
10.07.2011 22:45 19,5 C 22,9 C 17,6 C 18,9 C 17,6 C 0,0 C 85 % 93 % 0 % 1011,9 hPa 6,2 l/m 6,1 km/h (2 Bft) SW 225 0 min 0,0 UV-I 16,9 C 17,6 C 2,6 km/h (1 Bft)
10.07.2011 22:50 19,5 C 22,9 C 17,6 C 18,8 C 17,5 C 0,0 C 85 % 93 % 0 % 1012,6 hPa 1,4 l/m 3,2 km/h (1 Bft) N-NO 22 0 min 0,0 UV-I 16,9 C 17,5 C 0,0 km/h (0 Bft)
10.07.2011 22:55 19,3 C 22,9 C 17,7 C 18,7 C 17,5 C 0,0 C 86 % 93 % 0 % 1012,6 hPa 1,4 l/m 2,3 km/h (1 Bft) S-SO 157 0 min 0,0 UV-I 16,9 C 17,5 C 4,3 km/h (1 Bft)
10.07.2011 23:00 19,2 C 22,9 C 17,6 C 18,6 C 17,5 C 0,0 C 86 % 94 % 0 % 1012,6 hPa 0,7 l/m 2,7 km/h (1 Bft) SW 225 0 min 0,0 UV-I 16,8 C 17,5 C 4,8 km/h (1 Bft)
10.07.2011 23:09 19,1 C 23,0 C 17,6 C 18,6 C 17,5 C 0,0 C 87 % 94 % 0 % 1012,4 hPa 0,7 l/m 2,4 km/h (1 Bft) N 0 0 min 0,0 UV-I 16,9 C 17,5 C 3,4 km/h (1 Bft)
10.07.2011 23:15 19,0 C 23,0 C 17,5 C 18,5 C 17,5 C 0,0 C 87 % 94 % 0 % 1012,4 hPa 0,7 l/m 2,1 km/h (1 Bft) O 90 0 min 0,0 UV-I 16,8 C 17,5 C 3,1 km/h (1 Bft)
10.07.2011 23:20 19,0 C 22,9 C 17,5 C 18,5 C 17,5 C 0,0 C 87 % 94 % 0 % 1012,4 hPa 0,7 l/m 1,8 km/h (1 Bft) N-NO 22 0 min 0,0 UV-I 16,8 C 17,5 C 1,8 km/h (1 Bft)
10.07.2011 23:25 18,9 C 22,9 C 17,5 C 18,4 C 17,5 C 0,0 C 88 % 94 % 0 % 1012,4 hPa 0,0 l/m 1,6 km/h (1 Bft) N-NO 22 0 min 0,0 UV-I 16,9 C 17,5 C 0,0 km/h (0 Bft)
10.07.2011 23:30 18,9 C 22,9 C 17,5 C 18,4 C 17,5 C 0,0 C 88 % 94 % 0 % 1012,4 hPa 0,0 l/m 1,1 km/h (1 Bft) O-NO 67 0 min 0,0 UV-I 16,9 C 17,5 C 2,6 km/h (1 Bft)
10.07.2011 23:35 18,9 C 22,9 C 17,5 C 18,4 C 17,5 C 0,0 C 88 % 94 % 0 % 1012,4 hPa 0,7 l/m 0,8 km/h (0 Bft) N 360 0 min 0,0 UV-I 16,9 C 17,5 C 0,0 km/h (0 Bft)
10.07.2011 23:40 18,8 C 22,9 C 17,5 C 18,4 C 17,5 C 0,0 C 88 % 95 % 0 % 1012,4 hPa 0,0 l/m 1,3 km/h (1 Bft) NW 315 0 min 0,0 UV-I 16,8 C 17,5 C 1,9 km/h (1 Bft)
10.07.2011 23:45 18,8 C 22,9 C 17,5 C 18,4 C 17,5 C 0,0 C 88 % 95 % 0 % 1012,4 hPa 0,7 l/m 1,3 km/h (1 Bft) NO 45 0 min 0,0 UV-I 16,8 C 17,5 C 3,7 km/h (1 Bft)
10.07.2011 23:50 18,8 C 22,8 C 17,4 C 18,4 C 17,5 C 0,0 C 88 % 95 % 0 % 1012,6 hPa 0,7 l/m 1,0 km/h (0 Bft) O-SO 112 0 min 0,0 UV-I 16,8 C 17,5 C 3,5 km/h (1 Bft)
10.07.2011 23:55 18,4 C 22,8 C 17,5 C 18,1 C 17,5 C 0,0 C 89 % 95 % 0 % 1012,6 hPa 0,7 l/m 3,1 km/h (1 Bft) O-NO 67 0 min 0,0 UV-I 16,6 C 17,5 C 8,9 km/h (2 Bft)
_ Min-Zeit 05:20 10:15 05:45 05:20 05:20 00:00 17:00 17:35 00:00 21:30 - 00:25 - - - 00:15 05:40 05:20 00:00
Minimum _ 17,4 C 21,0 C 15,7 C 16,6 C 15,1 C 0,0 C 52 % 56 % 0 % 1010,9 hPa - 0,0 km/h (0 Bft) - - - 0,0 UV-I 15,0 C 15,1 C 0,0 km/h (0 Bft)
_ Max-Zeit 18:00 22:09 15:55 14:55 14:55 13:10 23:55 05:25 07:45 11:10 22:45 22:09 - - 10:10 13:55 08:40 14:55 22:09
Maximum _ 28,1 C 23,0 C 26,4 C 32,9 C 32,9 C 7,1 C 89 % 95 % 100 % 1015,7 hPa 6,2 l/m 12,6 km/h
N (3 Bft)
- - 10 min 5,0 UV-I 18,2 C 32,9 C 27,4 km/h
N (4 Bft)
Durchschnitt _ 22,1 C 21,9 C 20,2 C 24,0 C 23,4 C 2,3 C 72 % 81 % 45 % 1014,0 hPa #19,9 l/m 1,6 km/h (1 Bft) SW - #9:35 h 1,7 UV-I 16,5 C 23,4 C 2,3 km/h (1 Bft)
2013 www.wetterstation-wechselburg.de